首页
METAR-TAF:

METAR-TAF

机场 :

科威特國際機場

科威特, 科威特

纬度: 29-13N, 经度: 047-59E, 海拔: 55米

当前天气观测

该预报发布于20分钟前的16:00 UTC
风速6节,风向东南
温度 18°C
湿度 68%
气压 1014 hPa
能見度: 8000

METAR: OKBK 121600Z 13006KT 8000 NSC 18/12 Q1014 NOSIG

时间: 19:20 (16:20 UTC)

预报

该预报发布于5小时和35分钟前的10:45 UTC
预报有效从12日的 12点(UTC)到 13日的 18点(UTC)
风速3节,风向多变
能見度: 6000
成为
从 12日的 15点(UTC)到 12日的 17点(UTC)
风速10节,风向东南,有时为22节阵风
散云层高于4000英尺
多云层高于8000英尺
短暂存在
从 12日的 18点(UTC)到 13日的 03点(UTC)
能見度: 2000
少量云层高于2500英尺, 积雨云.

TAF: OKBK 121045Z 1212/1318 VRB03KT 6000 NSC BECMG 1215/1217 14010G22KT SCT040 BKN080 TEMPO 1218/1303 2000 TSRA/BLDU FEW025CB

超过4000个机场的气象观测和天气预报(METAR&TAF报告)。

可查询的气象台以黄色和红色小点在地图上表示。

将鼠标移到小点上方,可查看气象台名称。

然后点击查看天气观测和预报。

如需切换地图:点击带黑十字的绿色按钮放大地图;点击带横线的绿色按钮缩小地图;或者点击绿色箭头查看邻近地区的地图。


METAR-TAF: